الصفحة الرئيسية
METAR-TAF:

METAR-TAF

مطار :

مطار نابولي

نابولي, إيطاليا

دائرة عرض: 40-51N, خط طول: 014-18E, ارتفاع: 88 متر

مراقبة الطقس الحالي

تاريخ ووقت الإصدار 29 دقيقة قبل الساعة 20:20UTC
ريح 8 عقدة من الشمال الشرقي
درجة الحرارة 17°درجة مئوية
الرطوبة 68%
ضغط 1017 hPa
الرؤية 10 كم أو أكثر
غيوم متفرقة على ارتفاع 4500 قدم

METAR: LIRN 292020Z 05008KT 9999 SCT045 17/11 Q1017 NOSIG

زمن: 22:49 (20:49 UTC)

توقعات

تاريخ ووقت الإصدار 3ساعات و 49 دقيقة قبل الساعة 17:00UTC
التوقعات صالحة من29 الساعة 18 UTC إلى 30 الساعة 18 UTC
ريح 5 عقدةمن اتجاهات متغيرة
الرؤية 10 كم أو أكثر
غيوم متفرقة على ارتفاع 3000 قدم
مؤقت
من 29 الساعة 18 UTC إلى 30 الساعة 03 UTC
عاصفة رعدية, مطر
مؤقت
من 30 الساعة 06 UTC إلى 30 الساعة 12 UTC
الرؤية: 4000 متر
عاصفة رعدية, مطر
مؤقت
من 30 الساعة 12 UTC إلى 30 الساعة 18 UTC
الرؤية: 4000 متر
زخات من المطر

TAF: LIRN 291700Z 2918/3018 VRB05KT 9999 SCT030 TEMPO 2918/3003 TSRA TEMPO 3006/3012 4000 TSRA TEMPO 3012/3018 4000 SHRA

أرصاد الطقس والتوقعات من أكثر من 4000 مطار (تقارير الطقس للمطار METAR والتنبؤ بالطقس بالمطارTAF).

المحطات المتاحة هي النقط الصفراء والحمراء على الخريطة.

حرك المؤشر فوق النقطة لمعرفة اسم المحطة.

ثم انقر لمعرفة أرصاد وتوقعات الطقس.

لتغيير الخارطة: اضغط على الأزرار الخضراء مع رمز الصليب الأسود للتكبير. على الزر الأخضر مع شرطة للتصغير، أو على الأسهم الخضراء للخرائط المجاورة.


METAR-TAF: